sensor_id;sensor_type;location;lat;lon;timestamp;P1;durP1;ratioP1;P2;durP2;ratioP2
51566;SDS011;37657;53.182;5.638;2022-12-18T00:01:47;61.05;;;49.53;;
51566;SDS011;37657;53.182;5.638;2022-12-18T00:04:31;80.60;;;55.85;;
51566;SDS011;37657;53.182;5.638;2022-12-18T00:07:00;65.80;;;53.58;;
51566;SDS011;37657;53.182;5.638;2022-12-18T00:09:25;66.72;;;44.80;;
51566;SDS011;37657;53.182;5.638;2022-12-18T00:11:51;76.28;;;53.35;;
51566;SDS011;37657;53.182;5.638;2022-12-18T00:14:16;69.03;;;43.08;;
51566;SDS011;37657;53.182;5.638;2022-12-18T00:16:45;70.32;;;50.95;;
51566;SDS011;37657;53.182;5.638;2022-12-18T00:19:12;73.13;;;50.33;;
51566;SDS011;37657;53.182;5.638;2022-12-18T00:21:42;77.35;;;51.85;;
51566;SDS011;37657;53.182;5.638;2022-12-18T00:24:09;69.63;;;49.03;;
51566;SDS011;37657;53.182;5.638;2022-12-18T00:26:36;64.50;;;51.03;;
51566;SDS011;37657;53.182;5.638;2022-12-18T00:29:05;66.30;;;51.92;;
51566;SDS011;37657;53.182;5.638;2022-12-18T00:31:32;69.68;;;51.33;;
51566;SDS011;37657;53.182;5.638;2022-12-18T00:33:58;59.70;;;48.63;;
51566;SDS011;37657;53.182;5.638;2022-12-18T00:36:28;68.00;;;46.83;;
51566;SDS011;37657;53.182;5.638;2022-12-18T00:38:56;67.28;;;48.13;;
51566;SDS011;37657;53.182;5.638;2022-12-18T00:41:23;71.80;;;52.55;;
51566;SDS011;37657;53.182;5.638;2022-12-18T00:44:09;68.53;;;48.03;;
51566;SDS011;37657;53.182;5.638;2022-12-18T00:46:37;82.32;;;49.22;;
51566;SDS011;37657;53.182;5.638;2022-12-18T00:49:02;82.13;;;56.75;;
51566;SDS011;37657;53.182;5.638;2022-12-18T00:51:28;73.03;;;51.42;;
51566;SDS011;37657;53.182;5.638;2022-12-18T00:53:54;70.45;;;47.63;;
51566;SDS011;37657;53.182;5.638;2022-12-18T00:56:20;54.50;;;42.58;;
51566;SDS011;37657;53.182;5.638;2022-12-18T00:58:45;86.90;;;55.55;;
51566;SDS011;37657;53.182;5.638;2022-12-18T01:01:11;79.55;;;53.75;;
51566;SDS011;37657;53.182;5.638;2022-12-18T01:03:36;67.47;;;49.58;;
51566;SDS011;37657;53.182;5.638;2022-12-18T01:06:06;68.97;;;48.28;;
51566;SDS011;37657;53.182;5.638;2022-12-18T01:08:32;73.40;;;53.20;;
51566;SDS011;37657;53.182;5.638;2022-12-18T01:10:58;70.63;;;55.30;;
51566;SDS011;37657;53.182;5.638;2022-12-18T01:13:24;67.88;;;50.95;;
51566;SDS011;37657;53.182;5.638;2022-12-18T01:15:50;66.70;;;51.75;;
51566;SDS011;37657;53.182;5.638;2022-12-18T01:18:16;80.05;;;57.65;;
51566;SDS011;37657;53.182;5.638;2022-12-18T01:20:41;60.15;;;51.50;;
51566;SDS011;37657;53.182;5.638;2022-12-18T01:23:07;54.75;;;42.50;;
51566;SDS011;37657;53.182;5.638;2022-12-18T01:25:32;72.30;;;48.72;;
51566;SDS011;37657;53.182;5.638;2022-12-18T01:27:58;66.10;;;46.33;;
51566;SDS011;37657;53.182;5.638;2022-12-18T01:30:23;76.03;;;48.33;;
51566;SDS011;37657;53.182;5.638;2022-12-18T01:32:49;69.20;;;47.85;;
51566;SDS011;37657;53.182;5.638;2022-12-18T01:35:14;58.65;;;45.72;;
51566;SDS011;37657;53.182;5.638;2022-12-18T01:37:40;67.45;;;49.92;;
51566;SDS011;37657;53.182;5.638;2022-12-18T01:40:06;76.97;;;51.72;;
51566;SDS011;37657;53.182;5.638;2022-12-18T01:42:32;61.50;;;50.42;;
51566;SDS011;37657;53.182;5.638;2022-12-18T01:45:02;69.43;;;47.72;;
51566;SDS011;37657;53.182;5.638;2022-12-18T01:47:42;49.78;;;41.75;;
51566;SDS011;37657;53.182;5.638;2022-12-18T01:52:44;61.50;;;44.28;;
51566;SDS011;37657;53.182;5.638;2022-12-18T01:55:19;61.75;;;47.00;;
51566;SDS011;37657;53.182;5.638;2022-12-18T01:57:47;77.63;;;47.85;;
51566;SDS011;37657;53.182;5.638;2022-12-18T02:00:16;69.53;;;50.30;;
51566;SDS011;37657;53.182;5.638;2022-12-18T02:02:43;66.28;;;45.78;;
51566;SDS011;37657;53.182;5.638;2022-12-18T02:05:10;63.72;;;42.40;;
51566;SDS011;37657;53.182;5.638;2022-12-18T02:07:49;60.35;;;50.25;;
51566;SDS011;37657;53.182;5.638;2022-12-18T02:10:22;66.38;;;46.65;;
51566;SDS011;37657;53.182;5.638;2022-12-18T02:15:54;66.95;;;49.35;;
51566;SDS011;37657;53.182;5.638;2022-12-18T02:18:53;60.00;;;47.80;;
51566;SDS011;37657;53.182;5.638;2022-12-18T02:24:30;57.13;;;45.65;;
51566;SDS011;37657;53.182;5.638;2022-12-18T02:27:10;68.03;;;44.90;;
51566;SDS011;37657;53.182;5.638;2022-12-18T02:29:41;64.60;;;44.88;;
51566;SDS011;37657;53.182;5.638;2022-12-18T02:32:16;50.13;;;42.65;;
51566;SDS011;37657;53.182;5.638;2022-12-18T02:34:46;70.20;;;51.58;;
51566;SDS011;37657;53.182;5.638;2022-12-18T02:37:16;59.75;;;44.67;;
51566;SDS011;37657;53.182;5.638;2022-12-18T02:39:43;58.42;;;41.92;;
51566;SDS011;37657;53.182;5.638;2022-12-18T02:42:12;53.58;;;42.28;;
51566;SDS011;37657;53.182;5.638;2022-12-18T02:44:46;49.97;;;42.78;;
51566;SDS011;37657;53.182;5.638;2022-12-18T02:47:14;60.17;;;42.97;;
51566;SDS011;37657;53.182;5.638;2022-12-18T02:49:58;60.03;;;42.72;;
51566;SDS011;37657;53.182;5.638;2022-12-18T02:52:39;63.85;;;45.97;;
51566;SDS011;37657;53.182;5.638;2022-12-18T03:00:48;49.88;;;41.92;;
51566;SDS011;37657;53.182;5.638;2022-12-18T03:03:35;71.53;;;41.28;;
51566;SDS011;37657;53.182;5.638;2022-12-18T03:06:08;49.42;;;39.10;;
51566;SDS011;37657;53.182;5.638;2022-12-18T03:08:41;58.23;;;38.13;;
51566;SDS011;37657;53.182;5.638;2022-12-18T03:11:12;58.97;;;42.47;;
51566;SDS011;37657;53.182;5.638;2022-12-18T03:13:41;55.78;;;43.40;;
51566;SDS011;37657;53.182;5.638;2022-12-18T03:16:12;49.13;;;39.28;;
51566;SDS011;37657;53.182;5.638;2022-12-18T03:18:43;58.35;;;44.85;;
51566;SDS011;37657;53.182;5.638;2022-12-18T03:21:16;45.45;;;37.40;;
51566;SDS011;37657;53.182;5.638;2022-12-18T03:23:47;53.70;;;38.50;;
51566;SDS011;37657;53.182;5.638;2022-12-18T03:26:16;58.35;;;44.88;;
51566;SDS011;37657;53.182;5.638;2022-12-18T03:28:55;54.95;;;39.70;;
51566;SDS011;37657;53.182;5.638;2022-12-18T03:31:28;54.95;;;44.30;;
51566;SDS011;37657;53.182;5.638;2022-12-18T03:33:57;55.53;;;44.63;;
51566;SDS011;37657;53.182;5.638;2022-12-18T03:36:25;56.35;;;44.45;;
51566;SDS011;37657;53.182;5.638;2022-12-18T03:38:55;57.22;;;43.05;;
51566;SDS011;37657;53.182;5.638;2022-12-18T03:44:00;61.55;;;40.85;;
51566;SDS011;37657;53.182;5.638;2022-12-18T03:46:41;59.85;;;46.90;;
51566;SDS011;37657;53.182;5.638;2022-12-18T03:52:21;53.80;;;43.30;;
51566;SDS011;37657;53.182;5.638;2022-12-18T03:54:52;50.67;;;42.15;;
51566;SDS011;37657;53.182;5.638;2022-12-18T03:57:20;49.15;;;42.55;;
51566;SDS011;37657;53.182;5.638;2022-12-18T03:59:50;77.10;;;50.67;;
51566;SDS011;37657;53.182;5.638;2022-12-18T04:02:20;68.38;;;45.55;;
51566;SDS011;37657;53.182;5.638;2022-12-18T04:04:48;59.45;;;42.97;;
51566;SDS011;37657;53.182;5.638;2022-12-18T04:07:20;59.05;;;48.50;;
51566;SDS011;37657;53.182;5.638;2022-12-18T04:09:48;54.30;;;43.42;;
51566;SDS011;37657;53.182;5.638;2022-12-18T04:12:15;53.20;;;44.15;;
51566;SDS011;37657;53.182;5.638;2022-12-18T04:14:40;52.97;;;44.78;;
51566;SDS011;37657;53.182;5.638;2022-12-18T04:17:06;55.58;;;42.65;;
51566;SDS011;37657;53.182;5.638;2022-12-18T04:19:31;56.47;;;41.58;;
51566;SDS011;37657;53.182;5.638;2022-12-18T04:21:57;59.03;;;41.70;;
51566;SDS011;37657;53.182;5.638;2022-12-18T04:24:22;62.80;;;42.90;;
51566;SDS011;37657;53.182;5.638;2022-12-18T04:26:48;56.45;;;39.97;;
51566;SDS011;37657;53.182;5.638;2022-12-18T04:29:13;65.35;;;45.83;;
51566;SDS011;37657;53.182;5.638;2022-12-18T04:31:39;49.75;;;41.50;;
51566;SDS011;37657;53.182;5.638;2022-12-18T04:34:05;59.55;;;42.20;;
51566;SDS011;37657;53.182;5.638;2022-12-18T04:36:30;52.45;;;42.15;;
51566;SDS011;37657;53.182;5.638;2022-12-18T04:38:56;55.47;;;42.97;;
51566;SDS011;37657;53.182;5.638;2022-12-18T04:41:21;53.22;;;41.03;;
51566;SDS011;37657;53.182;5.638;2022-12-18T04:43:47;69.32;;;43.42;;
51566;SDS011;37657;53.182;5.638;2022-12-18T04:46:12;51.05;;;42.20;;
51566;SDS011;37657;53.182;5.638;2022-12-18T04:48:38;57.35;;;45.50;;
51566;SDS011;37657;53.182;5.638;2022-12-18T04:51:04;55.13;;;39.08;;
51566;SDS011;37657;53.182;5.638;2022-12-18T04:53:30;63.20;;;46.83;;
51566;SDS011;37657;53.182;5.638;2022-12-18T04:56:29;59.92;;;46.83;;
51566;SDS011;37657;53.182;5.638;2022-12-18T04:58:47;49.53;;;40.85;;
51566;SDS011;37657;53.182;5.638;2022-12-18T05:01:14;55.70;;;42.38;;
51566;SDS011;37657;53.182;5.638;2022-12-18T05:03:41;57.90;;;45.78;;
51566;SDS011;37657;53.182;5.638;2022-12-18T05:06:07;74.70;;;47.63;;
51566;SDS011;37657;53.182;5.638;2022-12-18T05:08:33;64.68;;;44.67;;
51566;SDS011;37657;53.182;5.638;2022-12-18T05:10:59;69.65;;;46.38;;
51566;SDS011;37657;53.182;5.638;2022-12-18T05:13:25;58.05;;;44.05;;
51566;SDS011;37657;53.182;5.638;2022-12-18T05:15:51;59.67;;;44.90;;
51566;SDS011;37657;53.182;5.638;2022-12-18T05:18:17;67.60;;;46.70;;
51566;SDS011;37657;53.182;5.638;2022-12-18T05:20:43;60.67;;;45.85;;
51566;SDS011;37657;53.182;5.638;2022-12-18T05:23:08;52.08;;;41.33;;
51566;SDS011;37657;53.182;5.638;2022-12-18T05:25:34;65.72;;;46.13;;
51566;SDS011;37657;53.182;5.638;2022-12-18T05:28:00;73.28;;;44.47;;
51566;SDS011;37657;53.182;5.638;2022-12-18T05:30:25;46.00;;;39.70;;
51566;SDS011;37657;53.182;5.638;2022-12-18T05:32:51;53.38;;;40.97;;
51566;SDS011;37657;53.182;5.638;2022-12-18T05:35:16;57.95;;;43.17;;
51566;SDS011;37657;53.182;5.638;2022-12-18T05:37:42;59.05;;;45.15;;
51566;SDS011;37657;53.182;5.638;2022-12-18T05:40:08;59.25;;;45.10;;
51566;SDS011;37657;53.182;5.638;2022-12-18T05:42:34;55.33;;;42.63;;
51566;SDS011;37657;53.182;5.638;2022-12-18T05:44:59;69.53;;;43.47;;
51566;SDS011;37657;53.182;5.638;2022-12-18T05:47:26;53.88;;;41.75;;
51566;SDS011;37657;53.182;5.638;2022-12-18T05:49:52;58.70;;;48.17;;
51566;SDS011;37657;53.182;5.638;2022-12-18T05:52:17;54.00;;;45.95;;
51566;SDS011;37657;53.182;5.638;2022-12-18T05:54:43;44.72;;;39.75;;
51566;SDS011;37657;53.182;5.638;2022-12-18T05:57:08;59.95;;;40.97;;
51566;SDS011;37657;53.182;5.638;2022-12-18T05:59:34;54.30;;;39.80;;
51566;SDS011;37657;53.182;5.638;2022-12-18T06:01:59;49.80;;;39.28;;
51566;SDS011;37657;53.182;5.638;2022-12-18T06:04:26;45.45;;;39.70;;
51566;SDS011;37657;53.182;5.638;2022-12-18T06:06:53;46.78;;;41.13;;
51566;SDS011;37657;53.182;5.638;2022-12-18T06:09:19;43.72;;;37.70;;
51566;SDS011;37657;53.182;5.638;2022-12-18T06:11:44;46.08;;;40.67;;
51566;SDS011;37657;53.182;5.638;2022-12-18T06:14:10;49.67;;;39.30;;
51566;SDS011;37657;53.182;5.638;2022-12-18T06:16:35;55.53;;;37.33;;
51566;SDS011;37657;53.182;5.638;2022-12-18T06:19:02;44.72;;;37.80;;
51566;SDS011;37657;53.182;5.638;2022-12-18T06:21:29;58.65;;;41.53;;
51566;SDS011;37657;53.182;5.638;2022-12-18T06:23:56;70.72;;;43.35;;
51566;SDS011;37657;53.182;5.638;2022-12-18T06:26:21;46.42;;;38.75;;
51566;SDS011;37657;53.182;5.638;2022-12-18T06:28:47;42.65;;;37.92;;
51566;SDS011;37657;53.182;5.638;2022-12-18T06:31:13;55.60;;;42.35;;
51566;SDS011;37657;53.182;5.638;2022-12-18T06:33:38;47.10;;;38.47;;
51566;SDS011;37657;53.182;5.638;2022-12-18T06:36:08;52.83;;;38.88;;
51566;SDS011;37657;53.182;5.638;2022-12-18T06:38:37;64.10;;;43.78;;
51566;SDS011;37657;53.182;5.638;2022-12-18T06:41:07;56.28;;;43.10;;
51566;SDS011;37657;53.182;5.638;2022-12-18T06:43:37;53.83;;;41.30;;
51566;SDS011;37657;53.182;5.638;2022-12-18T06:46:03;43.78;;;34.10;;
51566;SDS011;37657;53.182;5.638;2022-12-18T06:48:29;57.10;;;39.88;;
51566;SDS011;37657;53.182;5.638;2022-12-18T06:50:56;50.75;;;38.70;;
51566;SDS011;37657;53.182;5.638;2022-12-18T06:53:22;52.20;;;39.75;;
51566;SDS011;37657;53.182;5.638;2022-12-18T06:55:48;44.40;;;34.60;;
51566;SDS011;37657;53.182;5.638;2022-12-18T06:58:13;50.22;;;36.28;;
51566;SDS011;37657;53.182;5.638;2022-12-18T07:00:39;48.25;;;39.15;;
51566;SDS011;37657;53.182;5.638;2022-12-18T07:03:05;49.50;;;36.55;;
51566;SDS011;37657;53.182;5.638;2022-12-18T07:05:31;54.10;;;38.65;;
51566;SDS011;37657;53.182;5.638;2022-12-18T07:07:57;46.13;;;38.28;;
51566;SDS011;37657;53.182;5.638;2022-12-18T07:10:23;46.53;;;36.35;;
51566;SDS011;37657;53.182;5.638;2022-12-18T07:12:48;47.70;;;36.92;;
51566;SDS011;37657;53.182;5.638;2022-12-18T07:15:14;42.25;;;33.58;;
51566;SDS011;37657;53.182;5.638;2022-12-18T07:17:39;39.13;;;32.72;;
51566;SDS011;37657;53.182;5.638;2022-12-18T07:20:05;39.88;;;32.25;;
51566;SDS011;37657;53.182;5.638;2022-12-18T07:22:31;43.28;;;34.13;;
51566;SDS011;37657;53.182;5.638;2022-12-18T07:24:57;43.80;;;34.70;;
51566;SDS011;37657;53.182;5.638;2022-12-18T07:27:23;49.50;;;35.97;;
51566;SDS011;37657;53.182;5.638;2022-12-18T07:29:49;42.35;;;32.60;;
51566;SDS011;37657;53.182;5.638;2022-12-18T07:32:15;41.63;;;32.20;;
51566;SDS011;37657;53.182;5.638;2022-12-18T07:34:40;51.47;;;34.78;;
51566;SDS011;37657;53.182;5.638;2022-12-18T07:37:06;39.40;;;32.10;;
51566;SDS011;37657;53.182;5.638;2022-12-18T07:39:31;35.35;;;28.60;;
51566;SDS011;37657;53.182;5.638;2022-12-18T07:41:57;37.85;;;32.03;;
51566;SDS011;37657;53.182;5.638;2022-12-18T07:44:41;37.75;;;32.60;;
51566;SDS011;37657;53.182;5.638;2022-12-18T07:47:07;36.35;;;28.45;;
51566;SDS011;37657;53.182;5.638;2022-12-18T07:49:33;36.42;;;32.63;;
51566;SDS011;37657;53.182;5.638;2022-12-18T07:51:58;34.72;;;31.40;;
51566;SDS011;37657;53.182;5.638;2022-12-18T07:54:24;40.78;;;29.95;;
51566;SDS011;37657;53.182;5.638;2022-12-18T07:56:50;39.38;;;31.27;;
51566;SDS011;37657;53.182;5.638;2022-12-18T07:59:16;43.67;;;33.13;;
51566;SDS011;37657;53.182;5.638;2022-12-18T08:01:42;37.30;;;30.15;;
51566;SDS011;37657;53.182;5.638;2022-12-18T08:04:08;39.05;;;30.25;;
51566;SDS011;37657;53.182;5.638;2022-12-18T08:06:34;33.70;;;30.23;;
51566;SDS011;37657;53.182;5.638;2022-12-18T08:08:59;40.22;;;29.83;;
51566;SDS011;37657;53.182;5.638;2022-12-18T08:11:26;43.75;;;33.65;;
51566;SDS011;37657;53.182;5.638;2022-12-18T08:13:52;41.58;;;34.33;;
51566;SDS011;37657;53.182;5.638;2022-12-18T08:16:18;33.53;;;27.55;;
51566;SDS011;37657;53.182;5.638;2022-12-18T08:18:45;32.63;;;26.38;;
51566;SDS011;37657;53.182;5.638;2022-12-18T08:21:15;34.50;;;27.58;;
51566;SDS011;37657;53.182;5.638;2022-12-18T08:23:43;40.40;;;31.20;;
51566;SDS011;37657;53.182;5.638;2022-12-18T08:26:12;41.45;;;29.63;;
51566;SDS011;37657;53.182;5.638;2022-12-18T08:28:38;38.20;;;25.73;;
51566;SDS011;37657;53.182;5.638;2022-12-18T08:31:05;43.95;;;29.25;;
51566;SDS011;37657;53.182;5.638;2022-12-18T08:33:31;38.60;;;27.83;;
51566;SDS011;37657;53.182;5.638;2022-12-18T08:36:01;33.08;;;28.05;;
51566;SDS011;37657;53.182;5.638;2022-12-18T08:38:27;38.65;;;28.85;;
51566;SDS011;37657;53.182;5.638;2022-12-18T08:40:59;45.15;;;30.30;;
51566;SDS011;37657;53.182;5.638;2022-12-18T08:43:29;43.47;;;28.95;;
51566;SDS011;37657;53.182;5.638;2022-12-18T08:46:13;36.63;;;30.35;;
51566;SDS011;37657;53.182;5.638;2022-12-18T08:48:40;30.92;;;25.95;;
51566;SDS011;37657;53.182;5.638;2022-12-18T08:51:06;37.08;;;27.42;;
51566;SDS011;37657;53.182;5.638;2022-12-18T08:53:31;35.95;;;29.48;;
51566;SDS011;37657;53.182;5.638;2022-12-18T08:55:57;29.73;;;26.38;;
51566;SDS011;37657;53.182;5.638;2022-12-18T08:58:23;25.70;;;23.27;;
51566;SDS011;37657;53.182;5.638;2022-12-18T09:00:48;30.48;;;26.50;;
51566;SDS011;37657;53.182;5.638;2022-12-18T09:03:14;37.63;;;29.95;;
51566;SDS011;37657;53.182;5.638;2022-12-18T09:05:42;33.67;;;26.23;;
51566;SDS011;37657;53.182;5.638;2022-12-18T09:08:10;27.80;;;23.88;;
51566;SDS011;37657;53.182;5.638;2022-12-18T09:10:41;31.52;;;24.50;;
51566;SDS011;37657;53.182;5.638;2022-12-18T09:13:09;33.97;;;26.20;;
51566;SDS011;37657;53.182;5.638;2022-12-18T09:15:39;30.20;;;22.27;;
51566;SDS011;37657;53.182;5.638;2022-12-18T09:18:13;30.38;;;23.38;;
51566;SDS011;37657;53.182;5.638;2022-12-18T09:20:40;32.80;;;25.67;;
51566;SDS011;37657;53.182;5.638;2022-12-18T09:23:06;31.65;;;25.65;;
51566;SDS011;37657;53.182;5.638;2022-12-18T09:25:32;31.15;;;24.52;;
51566;SDS011;37657;53.182;5.638;2022-12-18T09:28:00;29.52;;;26.42;;
51566;SDS011;37657;53.182;5.638;2022-12-18T09:30:47;34.10;;;24.65;;
51566;SDS011;37657;53.182;5.638;2022-12-18T09:33:14;26.42;;;22.17;;
51566;SDS011;37657;53.182;5.638;2022-12-18T09:35:41;30.45;;;26.10;;
51566;SDS011;37657;53.182;5.638;2022-12-18T09:38:08;30.58;;;22.13;;
51566;SDS011;37657;53.182;5.638;2022-12-18T09:43:19;24.85;;;22.55;;
51566;SDS011;37657;53.182;5.638;2022-12-18T09:45:52;30.25;;;25.42;;
51566;SDS011;37657;53.182;5.638;2022-12-18T09:48:23;25.52;;;21.88;;
51566;SDS011;37657;53.182;5.638;2022-12-18T09:50:56;30.55;;;24.98;;
51566;SDS011;37657;53.182;5.638;2022-12-18T09:53:28;28.08;;;22.00;;
51566;SDS011;37657;53.182;5.638;2022-12-18T09:55:57;29.58;;;22.58;;
51566;SDS011;37657;53.182;5.638;2022-12-18T09:58:28;28.38;;;21.05;;
51566;SDS011;37657;53.182;5.638;2022-12-18T10:01:18;21.95;;;19.67;;
51566;SDS011;37657;53.182;5.638;2022-12-18T10:03:47;24.40;;;20.83;;
51566;SDS011;37657;53.182;5.638;2022-12-18T10:06:21;32.70;;;22.27;;
51566;SDS011;37657;53.182;5.638;2022-12-18T10:08:54;28.00;;;23.27;;
51566;SDS011;37657;53.182;5.638;2022-12-18T10:11:35;27.27;;;22.33;;
51566;SDS011;37657;53.182;5.638;2022-12-18T10:19:52;19.98;;;17.42;;
51566;SDS011;37657;53.182;5.638;2022-12-18T10:22:38;21.45;;;18.15;;
51566;SDS011;37657;53.182;5.638;2022-12-18T10:27:46;32.50;;;20.33;;
51566;SDS011;37657;53.182;5.638;2022-12-18T10:30:15;24.80;;;20.13;;
51566;SDS011;37657;53.182;5.638;2022-12-18T10:32:46;19.77;;;17.65;;
51566;SDS011;37657;53.182;5.638;2022-12-18T10:35:15;29.40;;;20.38;;
51566;SDS011;37657;53.182;5.638;2022-12-18T10:38:06;22.25;;;18.60;;
51566;SDS011;37657;53.182;5.638;2022-12-18T10:40:33;18.20;;;16.30;;
51566;SDS011;37657;53.182;5.638;2022-12-18T10:43:37;20.52;;;17.40;;
51566;SDS011;37657;53.182;5.638;2022-12-18T10:46:05;18.42;;;16.35;;
51566;SDS011;37657;53.182;5.638;2022-12-18T10:51:21;17.90;;;14.93;;
51566;SDS011;37657;53.182;5.638;2022-12-18T10:54:13;18.50;;;15.77;;
51566;SDS011;37657;53.182;5.638;2022-12-18T10:56:42;21.02;;;15.30;;
51566;SDS011;37657;53.182;5.638;2022-12-18T10:59:08;17.83;;;15.93;;
51566;SDS011;37657;53.182;5.638;2022-12-18T11:04:16;21.67;;;17.30;;
51566;SDS011;37657;53.182;5.638;2022-12-18T11:07:03;15.43;;;13.23;;
51566;SDS011;37657;53.182;5.638;2022-12-18T11:09:37;14.63;;;13.20;;
51566;SDS011;37657;53.182;5.638;2022-12-18T11:12:25;16.50;;;15.00;;
51566;SDS011;37657;53.182;5.638;2022-12-18T11:14:53;17.83;;;16.02;;
51566;SDS011;37657;53.182;5.638;2022-12-18T11:17:22;21.52;;;15.38;;
51566;SDS011;37657;53.182;5.638;2022-12-18T11:19:58;18.58;;;13.65;;
51566;SDS011;37657;53.182;5.638;2022-12-18T11:22:29;19.60;;;15.45;;
51566;SDS011;37657;53.182;5.638;2022-12-18T11:24:58;17.77;;;14.70;;
51566;SDS011;37657;53.182;5.638;2022-12-18T11:27:26;15.93;;;12.65;;
51566;SDS011;37657;53.182;5.638;2022-12-18T11:30:06;13.02;;;11.68;;
51566;SDS011;37657;53.182;5.638;2022-12-18T11:32:47;19.08;;;13.77;;
51566;SDS011;37657;53.182;5.638;2022-12-18T11:35:34;21.65;;;15.23;;
51566;SDS011;37657;53.182;5.638;2022-12-18T11:41:32;23.63;;;15.05;;
51566;SDS011;37657;53.182;5.638;2022-12-18T11:43:53;17.15;;;13.30;;
51566;SDS011;37657;53.182;5.638;2022-12-18T11:46:37;18.38;;;13.60;;
51566;SDS011;37657;53.182;5.638;2022-12-18T11:49:18;13.60;;;12.40;;
51566;SDS011;37657;53.182;5.638;2022-12-18T11:51:51;15.73;;;13.07;;
51566;SDS011;37657;53.182;5.638;2022-12-18T11:54:25;15.48;;;12.75;;
51566;SDS011;37657;53.182;5.638;2022-12-18T11:56:52;13.50;;;12.00;;
51566;SDS011;37657;53.182;5.638;2022-12-18T11:59:30;13.10;;;11.88;;
51566;SDS011;37657;53.182;5.638;2022-12-18T12:02:11;18.05;;;13.23;;
51566;SDS011;37657;53.182;5.638;2022-12-18T12:07:38;16.23;;;12.98;;
51566;SDS011;37657;53.182;5.638;2022-12-18T12:18:19;18.02;;;13.55;;
51566;SDS011;37657;53.182;5.638;2022-12-18T12:21:05;15.25;;;13.85;;
51566;SDS011;37657;53.182;5.638;2022-12-18T12:26:27;12.80;;;11.45;;
51566;SDS011;37657;53.182;5.638;2022-12-18T12:34:23;15.15;;;12.38;;
51566;SDS011;37657;53.182;5.638;2022-12-18T12:39:59;17.02;;;12.25;;
51566;SDS011;37657;53.182;5.638;2022-12-18T12:42:29;13.88;;;11.82;;
51566;SDS011;37657;53.182;5.638;2022-12-18T12:45:21;18.13;;;12.88;;
51566;SDS011;37657;53.182;5.638;2022-12-18T12:47:52;14.75;;;11.55;;
51566;SDS011;37657;53.182;5.638;2022-12-18T12:50:19;16.40;;;11.73;;
51566;SDS011;37657;53.182;5.638;2022-12-18T12:52:51;12.60;;;11.32;;
51566;SDS011;37657;53.182;5.638;2022-12-18T12:55:23;12.27;;;10.45;;
51566;SDS011;37657;53.182;5.638;2022-12-18T13:00:24;11.85;;;10.00;;
51566;SDS011;37657;53.182;5.638;2022-12-18T13:03:04;14.75;;;13.25;;
51566;SDS011;37657;53.182;5.638;2022-12-18T13:08:23;13.60;;;10.63;;
51566;SDS011;37657;53.182;5.638;2022-12-18T13:11:02;12.00;;;10.80;;
51566;SDS011;37657;53.182;5.638;2022-12-18T13:13:56;15.10;;;12.82;;
51566;SDS011;37657;53.182;5.638;2022-12-18T13:16:23;10.43;;;9.40;;
51566;SDS011;37657;53.182;5.638;2022-12-18T13:18:54;14.43;;;11.38;;
51566;SDS011;37657;53.182;5.638;2022-12-18T13:21:25;9.93;;;8.93;;
51566;SDS011;37657;53.182;5.638;2022-12-18T13:23:56;12.02;;;10.70;;
51566;SDS011;37657;53.182;5.638;2022-12-18T13:26:38;12.65;;;10.60;;
51566;SDS011;37657;53.182;5.638;2022-12-18T13:29:04;14.02;;;10.30;;
51566;SDS011;37657;53.182;5.638;2022-12-18T13:36:41;13.27;;;9.35;;
51566;SDS011;37657;53.182;5.638;2022-12-18T13:41:38;14.55;;;9.98;;
51566;SDS011;37657;53.182;5.638;2022-12-18T13:46:59;15.55;;;13.02;;
51566;SDS011;37657;53.182;5.638;2022-12-18T13:49:40;15.07;;;10.15;;
51566;SDS011;37657;53.182;5.638;2022-12-18T13:52:18;12.38;;;9.07;;
51566;SDS011;37657;53.182;5.638;2022-12-18T13:55:06;12.68;;;11.32;;
51566;SDS011;37657;53.182;5.638;2022-12-18T13:57:40;12.32;;;10.82;;
51566;SDS011;37657;53.182;5.638;2022-12-18T14:00:25;11.20;;;9.40;;
51566;SDS011;37657;53.182;5.638;2022-12-18T14:02:54;10.45;;;9.35;;
51566;SDS011;37657;53.182;5.638;2022-12-18T14:05:21;13.85;;;11.98;;
51566;SDS011;37657;53.182;5.638;2022-12-18T14:08:10;11.10;;;10.00;;
51566;SDS011;37657;53.182;5.638;2022-12-18T14:10:42;15.05;;;10.32;;
51566;SDS011;37657;53.182;5.638;2022-12-18T14:13:11;12.13;;;10.93;;
51566;SDS011;37657;53.182;5.638;2022-12-18T14:15:43;14.80;;;10.18;;
51566;SDS011;37657;53.182;5.638;2022-12-18T14:18:23;13.88;;;10.25;;
51566;SDS011;37657;53.182;5.638;2022-12-18T14:21:25;12.27;;;11.03;;
51566;SDS011;37657;53.182;5.638;2022-12-18T14:24:05;16.02;;;12.38;;
51566;SDS011;37657;53.182;5.638;2022-12-18T14:26:40;12.30;;;10.05;;
51566;SDS011;37657;53.182;5.638;2022-12-18T14:29:18;13.63;;;10.18;;
51566;SDS011;37657;53.182;5.638;2022-12-18T14:32:05;11.38;;;9.13;;
51566;SDS011;37657;53.182;5.638;2022-12-18T14:34:42;14.30;;;12.05;;
51566;SDS011;37657;53.182;5.638;2022-12-18T14:37:17;13.07;;;11.00;;
51566;SDS011;37657;53.182;5.638;2022-12-18T14:39:53;12.88;;;10.32;;
51566;SDS011;37657;53.182;5.638;2022-12-18T14:42:19;13.52;;;11.43;;
51566;SDS011;37657;53.182;5.638;2022-12-18T14:44:45;16.73;;;15.05;;
51566;SDS011;37657;53.182;5.638;2022-12-18T14:47:13;10.20;;;9.15;;
51566;SDS011;37657;53.182;5.638;2022-12-18T14:49:40;12.75;;;10.23;;
51566;SDS011;37657;53.182;5.638;2022-12-18T14:52:18;13.10;;;11.18;;
51566;SDS011;37657;53.182;5.638;2022-12-18T14:54:52;10.73;;;8.85;;
51566;SDS011;37657;53.182;5.638;2022-12-18T14:57:22;11.90;;;10.60;;
51566;SDS011;37657;53.182;5.638;2022-12-18T15:00:03;13.45;;;10.73;;
51566;SDS011;37657;53.182;5.638;2022-12-18T15:02:40;11.90;;;10.70;;
51566;SDS011;37657;53.182;5.638;2022-12-18T15:05:16;10.75;;;9.57;;
51566;SDS011;37657;53.182;5.638;2022-12-18T15:08:00;12.50;;;9.60;;
51566;SDS011;37657;53.182;5.638;2022-12-18T15:18:04;14.82;;;11.25;;
51566;SDS011;37657;53.182;5.638;2022-12-18T15:20:33;10.70;;;8.25;;
51566;SDS011;37657;53.182;5.638;2022-12-18T15:23:04;10.27;;;9.25;;
51566;SDS011;37657;53.182;5.638;2022-12-18T15:25:36;10.65;;;9.57;;
51566;SDS011;37657;53.182;5.638;2022-12-18T15:28:03;13.50;;;8.98;;
51566;SDS011;37657;53.182;5.638;2022-12-18T15:30:40;9.93;;;8.57;;
51566;SDS011;37657;53.182;5.638;2022-12-18T15:33:25;12.20;;;9.90;;
51566;SDS011;37657;53.182;5.638;2022-12-18T15:35:56;12.13;;;10.90;;
51566;SDS011;37657;53.182;5.638;2022-12-18T15:38:22;12.60;;;9.65;;
51566;SDS011;37657;53.182;5.638;2022-12-18T15:40:48;13.20;;;10.50;;
51566;SDS011;37657;53.182;5.638;2022-12-18T15:43:14;11.18;;;9.38;;
51566;SDS011;37657;53.182;5.638;2022-12-18T15:45:58;12.48;;;10.00;;
51566;SDS011;37657;53.182;5.638;2022-12-18T15:48:23;11.00;;;9.77;;
51566;SDS011;37657;53.182;5.638;2022-12-18T15:50:50;13.32;;;10.25;;
51566;SDS011;37657;53.182;5.638;2022-12-18T15:53:17;12.35;;;8.68;;
51566;SDS011;37657;53.182;5.638;2022-12-18T15:55:43;12.95;;;9.90;;
51566;SDS011;37657;53.182;5.638;2022-12-18T15:58:27;10.15;;;9.07;;
51566;SDS011;37657;53.182;5.638;2022-12-18T16:00:53;11.70;;;10.45;;
51566;SDS011;37657;53.182;5.638;2022-12-18T16:03:20;8.80;;;7.75;;
51566;SDS011;37657;53.182;5.638;2022-12-18T16:05:46;10.20;;;9.10;;
51566;SDS011;37657;53.182;5.638;2022-12-18T16:08:12;11.18;;;10.02;;